Honaker, Virginia
Current Conditions -  °F | °C
As of 3:55 AM on Sunday 26 Oct 2014 (Local Time) from KJFZ Reporting Station
Broken Clouds Broken Clouds  
Wind Chill: 58°   Ceiling: 1000
Heat Index: 58°   Visibility: 10mi
Dew Point: 35°   Wind: 8mph
Humidity: 41%   Direction: 250°WSW
Pressure: 29.96"   Gusts: NA
Location:  37.02°N, 81.97°W
Report Text: KJFZ 260755Z AUTO 25007KT 10SM BKN010 BKN014 15/01 A2996 RMK AO2 T01450014
Loading
Personal Weather Stations






























Interactive Weather Map
Tropical Storm Tracking
New forecast layout! Learn more

10-Day Weather Forecast

Advertisements
Track Severe Weather on mobile